WetterOnline ( http://www.wetteronline.de )

Wetter aktuell Lengenfeld

Aktuelles Wetter: Carlsfeld (899m)

6-stündlich | Neueste Meldungen
Ortszeit Temperatur Wetter
Mo, 18.06. 14:00 15.7° C bewölkt
Mo, 18.06. 8:00 12.6° C wolkenlos
Mo, 18.06. 2:00 8.9° C bedeckt
So, 17.06. 20:00 15.1° C bewölkt
So, 17.06. 14:00 16.0° C leichter Regen
So, 17.06. 8:00 16.5° C wolkig
So, 17.06. 2:00 14.9° C wolkig
Sa, 16.06. 20:00 18.2° C bedeckt
Ortszeit Temperatur Wetter
Mo, 18.06. 19:10 16.3° C bedeckt
Mo, 18.06. 19:00 16.7° C bewölkt
Mo, 18.06. 18:50 16.7° C bewölkt
Mo, 18.06. 18:40 16.8° C bewölkt
Mo, 18.06. 18:30 16.5° C bedeckt
Mo, 18.06. 18:20 16.5° C bedeckt
Mo, 18.06. 18:00 16.4° C bedeckt
Mo, 18.06. 17:30 16.2° C bedeckt
Mo, 18.06. 17:00 16.6° C bedeckt
Mo, 18.06. 16:30 16.5° C bedeckt
Mo, 18.06. 16:00 16.1° C bedeckt
Ortszeit Relative Feuchte Sichtweite
Mo, 18.06. 14:00 64% 50 km
Mo, 18.06. 8:00 79% 28 km
Mo, 18.06. 2:00 97% 12 km
So, 17.06. 20:00 87% 15 km
So, 17.06. 14:00 91% 5.0 km
So, 17.06. 8:00 67% 28 km
So, 17.06. 2:00 63% 29 km
Sa, 16.06. 20:00 68% 25 km
Ortszeit Relative Feuchte Sichtweite
Mo, 18.06. 19:10 68% -
Mo, 18.06. 19:00 66% 50 km
Mo, 18.06. 18:50 66% -
Mo, 18.06. 18:40 67% -
Mo, 18.06. 18:30 65% 65 km
Mo, 18.06. 18:20 65% -
Mo, 18.06. 18:00 65% 55 km
Mo, 18.06. 17:30 67% 60 km
Mo, 18.06. 17:00 62% 40 km
Mo, 18.06. 16:30 66% 65 km
Mo, 18.06. 16:00 67% 70 km
Ortszeit Niederschlagsmenge Niederschlagsart
Mo, 18.06. 14:00 0.0 l/m2 in 6 Std. -
Mo, 18.06. 8:00 0.0 l/m2 in 12 Std. -
Mo, 18.06. 2:00 0.0 l/m2 in 6 Std. -
So, 17.06. 20:00 6 l/m2 in 12 Std. Regen
So, 17.06. 14:00 5 l/m2 in 6 Std. Regen
So, 17.06. 8:00 0.0 l/m2 in 12 Std. -
So, 17.06. 2:00 0.0 l/m2 in 6 Std. -
Sa, 16.06. 20:00 0.0 l/m2 in 12 Std. -
Ortszeit Niederschlagsmenge Niederschlagsart
Mo, 18.06. 19:10 keine Meldung -
Mo, 18.06. 19:00 0.0 l/m2 in 1 Std. -
Mo, 18.06. 18:50 keine Meldung -
Mo, 18.06. 18:40 keine Meldung -
Mo, 18.06. 18:30 0.0 l/m2 in 1 Std. -
Mo, 18.06. 18:20 keine Meldung -
Mo, 18.06. 18:00 0.0 l/m2 in 1 Std. -
Mo, 18.06. 17:30 0.0 l/m2 in 1 Std. -
Mo, 18.06. 17:00 0.0 l/m2 in 1 Std. -
Mo, 18.06. 16:30 0.0 l/m2 in 1 Std. -
Mo, 18.06. 16:00 0.0 l/m2 in 1 Std. -
Ortszeit Stärke Spitze Richtung
km/h Bft. km/h Grad Sektor
Mo, 18.06. 14:00 7 2 25 340° N
Mo, 18.06. 8:00 4 1 14 280° W
Mo, 18.06. 2:00 6 1 11 260° W
So, 17.06. 20:00 6 1 28 10° N
So, 17.06. 14:00 4 1 25 320° NW
So, 17.06. 8:00 6 1 17 280° W
So, 17.06. 2:00 9 2 15 200° S
Sa, 16.06. 20:00 0 0 14 - -
Ortszeit Stärke Spitze Richtung
km/h Bft. km/h Grad Sektor
Mo, 18.06. 19:10 6 1 - 290° W
Mo, 18.06. 19:00 4 1 11 320° NW
Mo, 18.06. 18:50 4 1 - 320° NW
Mo, 18.06. 18:40 4 1 - 300° NW
Mo, 18.06. 18:30 4 1 11 300° NW
Mo, 18.06. 18:20 4 1 - 300° NW
Mo, 18.06. 18:00 4 1 14 330° NW
Mo, 18.06. 17:30 4 1 14 300° NW
Mo, 18.06. 17:00 6 1 13 290° W
Mo, 18.06. 16:30 4 1 14 320° NW
Mo, 18.06. 16:00 6 1 22 300° NW
Ortszeit Untergrenze Bedeckung Gattung
total tief tief mittel hoch
Mo, 18.06. 14:00 840 m 7/8 7/8 - - -
Mo, 18.06. 8:00 - 0/8 0/8 - - -
Mo, 18.06. 2:00 3300 m 8/8 8/8 - - -
So, 17.06. 20:00 300 m 7/8 7/8 - - -
So, 17.06. 14:00 1170 m 7/8 7/8 - - -
So, 17.06. 8:00 2100 m 5/8 5/8 - - -
So, 17.06. 2:00 2100 m 6/8 6/8 - - -
Sa, 16.06. 20:00 1800 m 8/8 8/8 - - -
Ortszeit Bedeckungsgrad in Achtel und Wolkenuntergrenze
Mo, 18.06. 19:10 8(1500m)
Mo, 18.06. 19:00 7(1800m)
Mo, 18.06. 18:50 7(1800m)
Mo, 18.06. 18:40 7(1800m)
Mo, 18.06. 18:30 8(1500m)
Mo, 18.06. 18:20 8(1500m)
Mo, 18.06. 18:00 1(1290m) 8(1500m)
Mo, 18.06. 17:30 2(1260m) 8(1500m)
Mo, 18.06. 17:00 8(1500m) 4(1470m) 8(1500m)
Mo, 18.06. 16:30 8(1500m)
Mo, 18.06. 16:00 4(1020m) 8(1380m)
Ortszeit Stationsdruck (hPa) Tendenz (hPa in 3 Std.)
Mo, 18.06. 14:00 919 + 0,2
Mo, 18.06. 8:00 918 + 0,3
Mo, 18.06. 2:00 917 + 0,5
So, 17.06. 20:00 916 + 1,0
So, 17.06. 14:00 915 + 0,1
So, 17.06. 8:00 915 + 0,5
So, 17.06. 2:00 914 - 0,1
Sa, 16.06. 20:00 914 - 0,2
Ortszeit Stationsdruck (hPa) Tendenz (hPa in 3 Std.)
Mo, 18.06. 19:10 919 keine Meldung
Mo, 18.06. 19:00 919 - 0,3
Mo, 18.06. 18:50 919 keine Meldung
Mo, 18.06. 18:40 919 keine Meldung
Mo, 18.06. 18:30 919 0,0
Mo, 18.06. 18:20 919 keine Meldung
Mo, 18.06. 18:00 919 + 0,1
Mo, 18.06. 17:30 919 0,0
Mo, 18.06. 17:00 919 + 0,1
Mo, 18.06. 16:30 919 - 0,2
Mo, 18.06. 16:00 919 - 0,1
Ortszeit Schneehöhe (cm)
Mo, 18.06. 14:00 -
Mo, 18.06. 8:00 -
Mo, 18.06. 2:00 -
So, 17.06. 20:00 -
So, 17.06. 14:00 -
So, 17.06. 8:00 -
So, 17.06. 2:00 -
Sa, 16.06. 20:00 -
Ortszeit Schneehöhe (cm)
Mo, 18.06. 19:10 -
Mo, 18.06. 19:00 -
Mo, 18.06. 18:50 -
Mo, 18.06. 18:40 -
Mo, 18.06. 18:30 -
Mo, 18.06. 18:20 -
Mo, 18.06. 18:00 -
Mo, 18.06. 17:30 -
Mo, 18.06. 17:00 -
Mo, 18.06. 16:30 -
Mo, 18.06. 16:00 -
Link zu dieser Seite / Seite empfehlen

Das Wetter in ...